Time;durP1;ratioP1;P1;durP2;ratioP2;P2;SDS_P1;SDS_P2;PMS_P1;PMS_P2;Temp;Humidity;BMP_temperature;BMP_pressure;BME280_temperature;BME280_humidity;BME280_pressure;Samples;Min_cycle;Max_cycle;Signal;HPM_P1;HPM_P2
2022/01/04 00:00:11;;;;;;;3.60;1.30;;;;;;;5.47;81.52;97644.15;105081;1268;61078;-24
2022/01/04 00:02:41;;;;;;;2.70;2.10;;;;;;;5.29;82.02;97647.90;104757;1271;61087;-24
2022/01/04 00:05:09;;;;;;;2.20;1.70;;;;;;;4.96;83.66;97649.56;105077;1271;75566;-24
2022/01/04 00:07:36;;;;;;;3.80;1.80;;;;;;;4.97;83.73;97654.11;104941;1271;75778;-24
2022/01/04 00:10:03;;;;;;;3.50;2.00;;;;;;;5.31;82.38;97650.11;104947;1270;74772;-24
2022/01/04 00:15:42;;;;;;;2.50;1.70;;;;;;;5.22;82.52;97654.51;104932;1271;63012;-24
2022/01/04 00:18:11;;;;;;;3.30;2.30;;;;;;;5.10;82.73;97650.09;104976;1271;75704;-24
2022/01/04 00:20:39;;;;;;;2.70;1.80;;;;;;;5.12;83.02;97653.17;104784;1271;74295;-24
2022/01/04 00:23:06;;;;;;;4.00;2.60;;;;;;;5.34;81.90;97656.45;104605;1270;402770;-24
2022/01/04 00:25:33;;;;;;;3.10;2.30;;;;;;;5.26;82.10;97657.63;104989;1271;61121;-23
2022/01/04 00:28:14;;;;;;;2.10;1.60;;;;;;;5.11;82.80;97670.72;105238;1271;61192;-24
2022/01/04 00:30:41;;;;;;;2.00;1.40;;;;;;;4.93;83.47;97655.25;105403;1271;75543;-24
2022/01/04 00:33:11;;;;;;;2.60;2.10;;;;;;;5.16;82.89;97664.81;105383;1271;72115;-24
2022/01/04 00:35:39;;;;;;;2.50;1.90;;;;;;;5.42;81.97;97659.60;105179;1271;73683;-23
2022/01/04 00:38:06;;;;;;;3.40;2.50;;;;;;;5.36;81.92;97662.32;105235;1271;61906;-23
2022/01/04 00:40:33;;;;;;;5.40;2.80;;;;;;;5.02;83.55;97664.66;105406;1271;61026;-24
2022/01/04 00:43:00;;;;;;;2.90;2.30;;;;;;;4.87;84.56;97670.89;105398;1271;74600;-23
2022/01/04 00:45:32;;;;;;;2.50;1.80;;;;;;;5.22;83.20;97674.64;105385;1271;75956;-23
2022/01/04 00:50:47;;;;;;;4.60;2.10;;;;;;;5.15;82.82;97668.27;104990;1271;61135;-24
2022/01/04 00:53:14;;;;;;;4.00;2.30;;;;;;;5.08;83.31;97677.44;104997;1271;61031;-23
2022/01/04 00:55:41;;;;;;;3.90;2.30;;;;;;;5.03;83.40;97679.41;104987;1271;75174;-23
2022/01/04 00:58:08;;;;;;;3.90;2.30;;;;;;;5.46;81.88;97680.91;105272;1268;74770;-24
2022/01/04 01:00:36;;;;;;;3.80;2.40;;;;;;;5.41;81.41;97673.08;104915;1271;74658;-23
2022/01/04 01:03:04;;;;;;;2.90;2.40;;;;;;;5.28;81.81;97666.20;105059;1268;60991;-23
2022/01/04 01:05:33;;;;;;;5.70;3.20;;;;;;;5.20;82.18;97679.71;105009;1268;61005;-23
2022/01/04 01:08:00;;;;;;;4.60;2.60;;;;;;;5.26;82.18;97678.05;105253;1271;75747;-23
2022/01/04 01:10:49;;;;;;;3.70;2.60;;;;;;;5.60;80.56;97684.45;105335;1268;77404;-23
2022/01/04 01:13:17;;;;;;;3.40;2.50;;;;;;;5.44;81.03;97685.07;105464;1268;73070;-23
2022/01/04 01:16:04;;;;;;;4.80;3.40;;;;;;;5.21;81.75;97675.40;105398;1268;63286;-24
2022/01/04 01:18:35;;;;;;;5.20;2.60;;;;;;;4.95;82.47;97667.83;105487;1268;61016;-24
2022/01/04 01:21:22;;;;;;;4.20;2.60;;;;;;;5.26;81.52;97690.09;105411;1268;76677;-23
2022/01/04 01:23:49;;;;;;;6.10;2.70;;;;;;;5.34;80.85;97685.33;105466;1268;75989;-24
2022/01/04 01:26:16;;;;;;;5.00;3.10;;;;;;;5.16;81.31;97688.51;105453;1268;74236;-23
2022/01/04 01:28:43;;;;;;;5.80;4.00;;;;;;;5.12;81.08;97684.67;105272;1269;61127;-23
2022/01/04 01:31:12;;;;;;;6.80;2.90;;;;;;;4.89;82.34;97687.56;105437;1268;61134;-23
2022/01/04 01:33:39;;;;;;;3.10;2.40;;;;;;;5.19;80.95;97689.81;105119;1271;75590;-23
2022/01/04 01:36:26;;;;;;;5.20;3.30;;;;;;;5.31;80.58;97694.21;105133;1271;74876;-24
2022/01/04 01:38:53;;;;;;;5.20;3.10;;;;;;;5.14;81.20;97695.04;105040;1269;73238;-23
2022/01/04 01:41:20;;;;;;;5.40;2.80;;;;;;;4.97;81.51;97690.35;105002;1268;61242;-23
2022/01/04 01:43:47;;;;;;;6.40;3.90;;;;;;;5.05;81.39;97696.46;105178;1268;61030;-23
2022/01/04 01:46:14;;;;;;;3.60;2.20;;;;;;;5.22;80.66;97697.36;105433;1268;75460;-23
2022/01/04 01:48:42;;;;;;;5.30;4.00;;;;;;;5.36;79.75;97692.42;105233;1268;76492;-23
2022/01/04 01:51:09;;;;;;;7.60;4.50;;;;;;;5.10;80.43;97692.96;105036;1268;74532;-24
2022/01/04 01:53:36;;;;;;;7.10;3.00;;;;;;;4.79;81.64;97700.58;105044;1268;61172;-23
2022/01/04 01:56:03;;;;;;;4.60;3.20;;;;;;;4.78;81.84;97688.41;104975;1269;61102;-23
2022/01/04 01:58:30;;;;;;;5.40;3.70;;;;;;;5.05;80.66;97693.20;105144;1268;75363;-24
2022/01/04 02:00:57;;;;;;;5.20;3.10;;;;;;;5.21;79.97;97698.95;105132;1268;75877;-24
2022/01/04 02:03:25;;;;;;;4.40;3.80;;;;;;;5.08;80.45;97698.28;105075;1268;74435;-23
2022/01/04 02:05:52;;;;;;;5.30;3.10;;;;;;;4.78;81.49;97694.79;105066;1268;61111;-22
2022/01/04 02:08:19;;;;;;;5.90;2.90;;;;;;;4.78;81.63;97712.33;105099;1268;61973;-21
2022/01/04 02:10:47;;;;;;;4.10;2.80;;;;;;;5.05;80.65;97706.80;105153;1269;75459;-21
2022/01/04 02:13:14;;;;;;;5.50;3.40;;;;;;;5.15;80.08;97714.23;104962;1269;75846;-23
2022/01/04 02:15:40;;;;;;;7.10;3.50;;;;;;;5.12;80.02;97710.54;104891;1271;72245;-23
2022/01/04 02:18:08;;;;;;;9.30;3.10;;;;;;;4.85;81.01;97709.52;105139;1271;61191;-24
2022/01/04 02:20:36;;;;;;;4.50;3.10;;;;;;;4.83;81.28;97706.62;104843;1271;61140;-24
2022/01/04 02:23:03;;;;;;;5.70;3.70;;;;;;;5.14;80.00;97708.27;104995;1271;75308;-25
2022/01/04 02:25:30;;;;;;;5.60;3.50;;;;;;;5.26;79.17;97714.58;104990;1271;76012;-23
2022/01/04 02:27:57;;;;;;;4.70;3.00;;;;;;;5.04;79.70;97696.73;104911;1271;74230;-23
2022/01/04 02:30:24;;;;;;;5.30;3.30;;;;;;;4.84;80.67;97709.83;104887;1271;61048;-24
2022/01/04 02:32:52;;;;;;;8.50;3.90;;;;;;;4.74;81.18;97712.86;105035;1271;61150;-23
2022/01/04 02:35:24;;;;;;;6.40;4.00;;;;;;;4.89;80.80;97717.31;105343;1271;75563;-26
2022/01/04 02:37:55;;;;;;;4.90;2.80;;;;;;;5.16;79.67;97711.20;105150;1271;75995;-25
2022/01/04 02:40:22;;;;;;;8.10;3.40;;;;;;;5.12;79.41;97713.30;104812;1271;74292;-26
2022/01/04 02:42:50;;;;;;;5.00;2.90;;;;;;;4.71;81.01;97697.55;104795;1270;61148;-23
2022/01/04 02:45:17;;;;;;;5.40;3.20;;;;;;;4.63;81.38;97708.00;104987;1271;62003;-25
2022/01/04 02:47:45;;;;;;;3.40;2.10;;;;;;;4.80;80.92;97706.86;105009;1271;73942;-21
2022/01/04 02:50:11;;;;;;;8.20;3.60;;;;;;;5.13;79.40;97706.48;104835;1271;75806;-23
2022/01/04 02:52:38;;;;;;;3.60;2.40;;;;;;;5.04;79.30;97710.48;104905;1271;74712;-23
2022/01/04 02:55:08;;;;;;;5.60;3.10;;;;;;;4.92;79.39;97718.30;105194;1271;62118;-23
2022/01/04 02:57:35;;;;;;;3.30;2.40;;;;;;;4.58;80.68;97717.49;104972;1271;61102;-23
2022/01/04 03:00:03;;;;;;;5.90;2.70;;;;;;;4.56;81.04;97725.02;105269;1271;75359;-23
2022/01/04 03:02:30;;;;;;;4.50;2.60;;;;;;;4.93;79.62;97725.58;105161;1272;76395;-27
2022/01/04 03:04:57;;;;;;;3.10;2.20;;;;;;;5.01;79.17;97731.49;105338;1271;74333;-23
2022/01/04 03:07:24;;;;;;;7.40;2.50;;;;;;;5.01;78.77;97722.38;104948;1271;61728;-23
2022/01/04 03:09:53;;;;;;;3.10;1.90;;;;;;;4.69;79.75;97728.34;105244;1271;61130;-23
2022/01/04 03:12:21;;;;;;;3.70;1.90;;;;;;;4.45;80.81;97726.73;105106;1268;75792;-23
2022/01/04 03:14:50;;;;;;;6.10;2.70;;;;;;;4.64;80.54;97717.55;104968;1268;75725;-23
2022/01/04 03:17:17;;;;;;;4.90;2.20;;;;;;;4.93;79.43;97708.77;105215;1271;74400;-23
2022/01/04 03:19:44;;;;;;;2.40;1.60;;;;;;;4.99;79.27;97712.43;105476;1268;61086;-23
2022/01/04 03:22:11;;;;;;;4.50;2.50;;;;;;;4.92;79.54;97718.98;105289;1269;61063;-23
2022/01/04 03:24:38;;;;;;;3.70;2.00;;;;;;;4.71;80.29;97716.17;105423;1268;75507;-23
2022/01/04 03:27:05;;;;;;;3.20;2.00;;;;;;;4.48;81.44;97719.81;105409;1268;75953;-23
2022/01/04 03:29:33;;;;;;;4.30;2.30;;;;;;;4.71;80.67;97712.31;105035;1268;74300;-22
2022/01/04 03:32:01;;;;;;;4.40;2.40;;;;;;;4.98;79.41;97721.58;104999;1268;62356;-22
2022/01/04 03:34:28;;;;;;;5.20;2.50;;;;;;;4.93;79.23;97722.02;104993;1266;62611;-23
2022/01/04 03:36:55;;;;;;;5.40;2.70;;;;;;;4.78;79.75;97726.80;104937;1268;76272;-23
2022/01/04 03:39:22;;;;;;;6.40;2.70;;;;;;;4.57;80.48;97733.91;105009;1269;75737;-22
2022/01/04 03:41:50;;;;;;;10.00;2.90;;;;;;;4.44;81.22;97735.02;104897;1271;72324;-25
2022/01/04 03:44:21;;;;;;;6.40;3.20;;;;;;;4.90;79.60;97735.65;104986;1269;61261;-23
2022/01/04 03:46:49;;;;;;;5.80;3.00;;;;;;;4.98;79.11;97728.86;105209;1268;62065;-23
2022/01/04 03:49:16;;;;;;;8.50;3.00;;;;;;;4.83;79.43;97735.64;105195;1271;75604;-23
2022/01/04 03:51:43;;;;;;;5.30;2.80;;;;;;;4.69;80.05;97739.27;105171;1268;75758;-22
2022/01/04 03:54:11;;;;;;;7.70;2.60;;;;;;;4.61;80.41;97740.96;105081;1268;74371;-22
2022/01/04 03:56:38;;;;;;;2.70;2.10;;;;;;;4.96;79.45;97742.70;105118;1268;61139;-23
2022/01/04 03:59:05;;;;;;;4.60;2.70;;;;;;;5.29;78.04;97736.31;105443;1268;60980;-23
2022/01/04 04:01:32;;;;;;;8.70;2.80;;;;;;;5.28;77.97;97740.73;105466;1268;74776;-22
2022/01/04 04:03:59;;;;;;;4.00;2.40;;;;;;;5.13;78.48;97735.91;105414;1268;75973;-23
2022/01/04 04:06:26;;;;;;;6.10;2.90;;;;;;;4.93;79.23;97741.11;105382;1268;74361;-23
2022/01/04 04:08:56;;;;;;;6.40;2.30;;;;;;;4.76;79.84;97740.34;105407;1268;63365;-23
2022/01/04 04:11:24;;;;;;;6.40;2.30;;;;;;;5.03;79.35;97741.13;105204;1269;61284;-23
2022/01/04 04:13:51;;;;;;;6.40;2.10;;;;;;;5.39;77.87;97744.34;105184;1271;75856;-23
2022/01/04 04:16:19;;;;;;;5.70;2.60;;;;;;;5.24;78.16;97740.56;105480;1268;75889;-22
2022/01/04 04:18:46;;;;;;;6.40;2.80;;;;;;;5.05;78.87;97743.38;105109;1271;74836;-23
2022/01/04 04:21:27;;;;;;;5.40;2.90;;;;;;;4.81;80.10;97744.07;105005;1268;61015;-23
2022/01/04 04:23:55;;;;;;;5.60;2.40;;;;;;;4.69;81.07;97738.46;105036;1271;61047;-23
2022/01/04 04:26:22;;;;;;;6.90;2.80;;;;;;;5.14;79.72;97744.08;105428;1268;75420;-23
2022/01/04 04:28:49;;;;;;;6.00;2.60;;;;;;;5.32;78.61;97740.38;105437;1268;76054;-23
2022/01/04 04:31:16;;;;;;;7.40;2.30;;;;;;;5.22;78.67;97734.63;105462;1268;74764;-23
2022/01/04 04:33:43;;;;;;;6.60;2.40;;;;;;;5.16;78.82;97738.79;105234;1268;62653;-23
2022/01/04 04:36:10;;;;;;;8.30;2.60;;;;;;;5.00;79.35;97733.15;104966;1269;60987;-23
2022/01/04 04:38:37;;;;;;;6.40;2.60;;;;;;;4.83;80.13;97731.57;104925;1268;75574;-23
2022/01/04 04:41:04;;;;;;;4.00;2.20;;;;;;;5.24;79.16;97736.92;104958;1268;75825;-22
2022/01/04 04:43:30;;;;;;;7.70;2.90;;;;;;;5.61;77.34;97734.96;104987;1268;74197;-23
2022/01/04 04:45:57;;;;;;;8.10;2.80;;;;;;;5.59;77.24;97736.47;104920;1268;61970;-23
2022/01/04 04:48:25;;;;;;;6.10;3.10;;;;;;;5.34;77.93;97734.53;104949;1268;61123;-23
2022/01/04 04:50:52;;;;;;;6.10;2.90;;;;;;;5.15;78.82;97739.70;104970;1269;75492;-23
2022/01/04 04:53:19;;;;;;;5.50;2.70;;;;;;;4.97;79.36;97742.63;105009;1268;74567;-23
2022/01/04 04:55:46;;;;;;;5.80;2.80;;;;;;;5.00;79.76;97738.31;105034;1268;74406;-23
2022/01/04 04:58:13;;;;;;;8.60;2.70;;;;;;;5.57;78.03;97741.33;105005;1269;61125;-23
2022/01/04 05:00:40;;;;;;;8.70;3.30;;;;;;;5.75;76.93;97740.21;105071;1268;61100;-23
2022/01/04 05:03:08;;;;;;;6.70;2.90;;;;;;;5.58;77.21;97744.70;105133;1268;75690;-23
2022/01/04 05:05:36;;;;;;;6.90;2.70;;;;;;;5.43;77.82;97746.37;105430;1268;75051;-23
2022/01/04 05:08:03;;;;;;;8.90;3.10;;;;;;;5.28;78.18;97747.39;105444;1268;74282;-23
2022/01/04 05:10:31;;;;;;;6.20;2.40;;;;;;;5.09;79.25;97750.16;105466;1268;61019;-24
2022/01/04 05:13:00;;;;;;;5.50;2.70;;;;;;;5.45;78.69;97750.73;105056;1269;61238;-24
2022/01/04 05:15:27;;;;;;;4.90;2.40;;;;;;;5.94;76.78;97750.58;105043;1268;75491;-23
2022/01/04 05:17:54;;;;;;;8.70;2.30;;;;;;;5.97;76.10;97749.48;105376;1268;75094;-24
2022/01/04 05:20:21;;;;;;;6.00;2.70;;;;;;;5.68;76.82;97742.49;105417;1268;73333;-25
2022/01/04 05:22:48;;;;;;;8.50;3.20;;;;;;;5.37;77.92;97752.08;105314;1268;61140;-24
2022/01/04 05:25:14;;;;;;;4.20;2.70;;;;;;;5.20;78.68;97749.66;105431;1268;62109;-24
2022/01/04 05:27:42;;;;;;;5.70;2.20;;;;;;;5.05;79.38;97756.81;105150;1268;75387;-24
2022/01/04 05:30:09;;;;;;;4.10;2.00;;;;;;;5.39;78.46;97757.59;104997;1268;75918;-24
2022/01/04 05:32:37;;;;;;;7.30;2.70;;;;;;;5.71;77.08;97752.54;104837;1269;74257;-25
2022/01/04 05:35:04;;;;;;;6.70;2.40;;;;;;;5.68;77.01;97751.84;104942;1268;61122;-24
2022/01/04 05:37:33;;;;;;;5.40;2.40;;;;;;;5.53;77.32;97756.92;104798;1269;61654;-22
2022/01/04 05:40:01;;;;;;;8.10;3.10;;;;;;;5.34;78.23;97754.16;105120;1268;75612;-22
2022/01/04 05:42:28;;;;;;;6.10;2.20;;;;;;;5.16;79.02;97758.16;105268;1269;75745;-23
2022/01/04 05:44:55;;;;;;;5.60;2.10;;;;;;;5.51;78.35;97761.07;105065;1269;74186;-22
2022/01/04 05:47:24;;;;;;;5.30;2.30;;;;;;;5.90;76.56;97759.46;105004;1269;61158;-22
2022/01/04 05:49:52;;;;;;;6.40;2.70;;;;;;;5.90;76.30;97763.96;104922;1269;61044;-22
2022/01/04 05:52:19;;;;;;;5.40;2.40;;;;;;;5.72;76.89;97760.95;104958;1268;75439;-22
2022/01/04 05:54:49;;;;;;;6.60;3.20;;;;;;;5.50;77.60;97767.52;105368;1268;75976;-22
2022/01/04 05:57:16;;;;;;;6.10;2.20;;;;;;;5.29;78.21;97770.80;105300;1269;73418;-23
2022/01/04 05:59:43;;;;;;;4.60;2.00;;;;;;;5.19;78.88;97772.09;105475;1268;61684;-22
2022/01/04 06:02:10;;;;;;;6.10;2.10;;;;;;;5.67;77.84;97772.52;105418;1269;61124;-22
2022/01/04 06:04:37;;;;;;;6.00;2.40;;;;;;;6.19;75.68;97771.91;105273;1271;75446;-22
2022/01/04 06:07:05;;;;;;;7.30;2.40;;;;;;;6.22;75.32;97773.77;105136;1268;76042;-22
2022/01/04 06:09:41;;;;;;;5.70;2.80;;;;;;;6.06;75.57;97771.79;105333;1268;74456;-22
2022/01/04 06:14:57;;;;;;;5.30;2.60;;;;;;;5.59;76.84;97779.18;105270;1269;61109;-23
2022/01/04 06:17:47;;;;;;;4.90;2.30;;;;;;;5.34;77.70;97781.71;105245;1268;76611;-22
2022/01/04 06:20:16;;;;;;;3.70;1.70;;;;;;;5.19;78.58;97782.73;105304;1271;75878;-23
2022/01/04 06:22:43;;;;;;;4.30;2.40;;;;;;;5.64;77.92;97788.06;104862;1271;73582;-22
2022/01/04 06:25:13;;;;;;;6.20;2.60;;;;;;;6.22;75.58;97789.24;104991;1271;61103;-22
2022/01/04 06:27:41;;;;;;;5.90;2.30;;;;;;;6.31;74.79;97794.73;104960;1271;61915;-22
2022/01/04 06:30:08;;;;;;;5.50;2.50;;;;;;;6.10;75.34;97794.73;104833;1269;74490;-22
2022/01/04 06:32:36;;;;;;;4.20;2.30;;;;;;;5.83;76.17;97797.92;104995;1269;74921;-23
2022/01/04 06:35:04;;;;;;;4.90;2.60;;;;;;;5.57;77.00;97791.64;105042;1269;74500;-23
2022/01/04 06:37:32;;;;;;;4.70;2.00;;;;;;;5.35;77.89;97791.65;105077;1268;61131;-24
2022/01/04 06:39:59;;;;;;;3.00;1.90;;;;;;;5.24;78.34;97790.84;105278;1269;61112;-22
2022/01/04 06:42:26;;;;;;;7.10;2.70;;;;;;;5.72;77.55;97789.18;104969;1268;74529;-22
2022/01/04 06:44:53;;;;;;;7.90;2.80;;;;;;;6.23;75.38;97791.57;104923;1271;75918;-23
2022/01/04 06:47:20;;;;;;;4.40;2.50;;;;;;;6.29;74.78;97791.27;104949;1271;73460;-23
2022/01/04 06:49:47;;;;;;;6.50;2.30;;;;;;;6.15;75.23;97791.77;105092;1268;61108;-22
2022/01/04 06:52:15;;;;;;;4.60;2.30;;;;;;;5.94;75.93;97794.65;105085;1268;61034;-22
2022/01/04 06:54:42;;;;;;;6.60;2.20;;;;;;;5.70;76.69;97794.34;104949;1271;75293;-22
2022/01/04 06:57:08;;;;;;;7.70;2.90;;;;;;;5.51;77.34;97795.02;105048;1269;74782;-22
2022/01/04 06:59:36;;;;;;;4.90;2.10;;;;;;;5.36;77.90;97793.04;105247;1268;74538;-22
2022/01/04 07:02:04;;;;;;;5.80;1.90;;;;;;;5.88;77.12;97794.48;105062;1268;61081;-22
2022/01/04 07:04:33;;;;;;;5.10;1.90;;;;;;;6.48;74.94;97794.00;105402;1268;61987;-23
2022/01/04 07:07:00;;;;;;;7.60;2.60;;;;;;;6.61;74.56;97797.58;105140;1268;75457;-22
2022/01/04 07:09:27;;;;;;;8.10;2.70;;;;;;;6.47;74.63;97801.53;104937;1268;75065;-22
2022/01/04 07:11:54;;;;;;;7.50;4.00;;;;;;;6.25;75.16;97796.92;105007;1269;74328;-22
2022/01/04 07:14:22;;;;;;;5.00;2.30;;;;;;;6.01;75.59;97796.98;105022;1269;61061;-23
2022/01/04 07:16:49;;;;;;;4.40;2.60;;;;;;;5.80;76.09;97803.88;105388;1268;61092;-23
2022/01/04 07:19:16;;;;;;;4.10;1.50;;;;;;;5.64;76.98;97808.39;105417;1268;75615;-22
2022/01/04 07:21:44;;;;;;;7.20;1.70;;;;;;;6.12;76.67;97803.55;105418;1272;74018;-22
2022/01/04 07:24:11;;;;;;;9.70;2.40;;;;;;;6.65;74.95;97800.85;105299;1271;74828;-22
2022/01/04 07:26:38;;;;;;;6.10;2.40;;;;;;;6.70;74.36;97803.73;105365;1270;62250;-23
2022/01/04 07:29:07;;;;;;;6.60;3.20;;;;;;;6.53;74.68;97803.77;104970;1271;61593;-22
2022/01/04 07:31:33;;;;;;;6.30;3.40;;;;;;;6.26;75.40;97801.34;105327;1271;75526;-22
2022/01/04 07:34:01;;;;;;;5.90;2.50;;;;;;;6.07;75.72;97798.58;105161;1272;75758;-22
2022/01/04 07:36:30;;;;;;;6.10;2.50;;;;;;;5.85;76.19;97797.39;105407;1271;73444;-22
2022/01/04 07:39:00;;;;;;;3.80;1.80;;;;;;;5.84;77.02;97796.81;105174;1271;63556;-23
2022/01/04 07:41:27;;;;;;;6.50;2.60;;;;;;;6.47;75.79;97797.69;105345;1271;61850;-22
2022/01/04 07:43:54;;;;;;;6.20;2.70;;;;;;;6.89;74.39;97794.34;105301;1271;74726;-22
2022/01/04 07:46:23;;;;;;;6.80;2.60;;;;;;;6.85;74.13;97797.77;105058;1271;75915;-22
2022/01/04 07:48:50;;;;;;;5.90;2.10;;;;;;;6.63;74.33;97796.91;104985;1271;74283;-22
2022/01/04 07:51:18;;;;;;;5.20;2.30;;;;;;;6.39;74.82;97798.55;104832;1271;61236;-22
2022/01/04 07:53:45;;;;;;;3.60;2.40;;;;;;;6.19;75.47;97796.55;104931;1268;61917;-22
2022/01/04 07:56:12;;;;;;;4.80;2.40;;;;;;;5.93;76.07;97797.63;104985;1268;75443;-22
2022/01/04 07:58:39;;;;;;;5.90;2.20;;;;;;;5.78;76.64;97799.52;105043;1267;75003;-22
2022/01/04 08:01:06;;;;;;;6.50;2.30;;;;;;;6.16;76.34;97796.50;105400;1268;74658;-22
2022/01/04 08:03:34;;;;;;;5.70;2.80;;;;;;;6.48;74.96;97795.77;105050;1268;61012;-22
2022/01/04 08:06:06;;;;;;;5.00;2.50;;;;;;;6.43;75.12;97801.63;105106;1271;61015;-24
2022/01/04 08:08:33;;;;;;;7.80;3.40;;;;;;;6.31;75.16;97799.03;104979;1268;75537;-22
2022/01/04 08:11:01;;;;;;;11.30;3.40;;;;;;;6.14;75.84;97799.27;104990;1268;75885;-22
2022/01/04 08:13:30;;;;;;;6.30;3.20;;;;;;;5.91;76.39;97801.61;105236;1268;74614;-22
2022/01/04 08:15:57;;;;;;;8.10;3.00;;;;;;;5.79;77.07;97805.84;105431;1268;62721;-22
2022/01/04 08:18:24;;;;;;;4.80;2.30;;;;;;;6.30;76.05;97800.70;105393;1268;61126;-22
2022/01/04 08:20:56;;;;;;;4.80;2.70;;;;;;;6.76;74.00;97802.48;105443;1268;75335;-22
2022/01/04 08:23:24;;;;;;;8.90;3.00;;;;;;;6.76;73.57;97799.56;105186;1271;75951;-24
2022/01/04 08:25:52;;;;;;;6.10;3.10;;;;;;;6.60;73.97;97797.64;105153;1268;74606;-23
2022/01/04 08:28:19;;;;;;;8.00;2.80;;;;;;;6.37;74.88;97797.70;104846;1271;61984;-23
2022/01/04 08:30:46;;;;;;;7.20;3.30;;;;;;;6.17;75.74;97795.21;104935;1271;61817;-23
2022/01/04 08:33:13;;;;;;;8.90;3.50;;;;;;;6.02;76.09;97799.50;104979;1268;75565;-23
2022/01/04 08:35:40;;;;;;;6.60;2.20;;;;;;;5.92;76.19;97800.86;105009;1268;77467;-24
2022/01/04 08:38:07;;;;;;;7.60;3.20;;;;;;;6.31;75.70;97800.02;105358;1268;74302;-23
2022/01/04 08:40:34;;;;;;;5.70;2.90;;;;;;;6.69;74.32;97802.19;105026;1268;61069;-24
2022/01/04 08:43:02;;;;;;;10.90;3.40;;;;;;;6.81;73.48;97800.70;104737;1274;61093;-23
2022/01/04 08:45:29;;;;;;;7.10;2.30;;;;;;;6.67;73.75;97798.26;104949;1268;75584;-23
2022/01/04 08:47:56;;;;;;;4.90;3.00;;;;;;;6.44;75.10;97800.88;104989;1268;75883;-23
2022/01/04 08:50:27;;;;;;;6.40;3.00;;;;;;;6.25;75.33;97798.33;105026;1268;73438;-22
2022/01/04 08:52:56;;;;;;;6.70;2.40;;;;;;;6.13;76.00;97802.95;105346;1268;61609;-23
2022/01/04 08:55:23;;;;;;;7.50;2.60;;;;;;;6.56;75.03;97806.79;105373;1268;60999;-23
2022/01/04 08:57:50;;;;;;;6.90;2.90;;;;;;;7.01;73.13;97807.67;105115;1271;73483;-23
2022/01/04 09:00:17;;;;;;;5.50;2.50;;;;;;;7.06;72.44;97809.32;105396;1268;75848;-23
2022/01/04 09:02:44;;;;;;;6.90;2.60;;;;;;;6.92;72.71;97804.43;105412;1268;74462;-23
2022/01/04 09:05:11;;;;;;;4.70;2.50;;;;;;;6.73;72.73;97797.38;105369;1268;61141;-23
2022/01/04 09:07:38;;;;;;;6.50;3.20;;;;;;;6.54;73.24;97799.87;105210;1268;61120;-23
2022/01/04 09:10:06;;;;;;;9.10;3.20;;;;;;;6.41;73.95;97802.49;105245;1268;75772;-23
2022/01/04 09:21:14;;;;;;;7.40;3.10;;;;;;;7.42;70.78;97797.67;105061;1268;61036;-23
2022/01/04 09:23:42;;;;;;;6.70;2.30;;;;;;;7.19;71.16;97791.54;104952;1268;74408;-23
2022/01/04 09:26:09;;;;;;;5.60;2.90;;;;;;;7.00;71.13;97786.45;104733;1270;75937;-23
2022/01/04 09:28:36;;;;;;;5.30;3.00;;;;;;;6.79;71.12;97781.71;105010;1268;74426;-23
2022/01/04 09:31:04;;;;;;;8.90;2.80;;;;;;;6.68;72.02;97785.90;105057;1268;61137;-23
2022/01/04 09:33:31;;;;;;;5.00;2.60;;;;;;;6.60;72.32;97783.66;105069;1268;61071;-23
2022/01/04 09:36:18;;;;;;;8.50;2.90;;;;;;;6.52;72.23;97783.02;105386;1268;74583;-23
2022/01/04 09:38:45;;;;;;;2.80;1.80;;;;;;;6.49;72.80;97779.95;105353;1268;74904;-23
2022/01/04 09:41:12;;;;;;;9.40;3.10;;;;;;;7.08;71.37;97777.52;105367;1268;73412;-23
2022/01/04 09:43:39;;;;;;;6.50;2.20;;;;;;;7.50;69.03;97773.32;105307;1268;61814;-23
2022/01/04 09:46:07;;;;;;;13.80;3.30;;;;;;;7.49;68.26;97763.75;105368;1268;61834;-23
2022/01/04 09:48:35;;;;;;;5.00;2.30;;;;;;;7.55;68.09;97770.32;105060;1268;75791;-23
2022/01/04 09:51:02;;;;;;;5.60;3.00;;;;;;;7.33;68.26;97759.61;105052;1268;75963;-22
2022/01/04 09:53:29;;;;;;;6.00;3.00;;;;;;;7.05;68.91;97762.42;105062;1268;74445;-22
2022/01/04 09:55:57;;;;;;;5.80;2.70;;;;;;;6.93;69.91;97763.95;105084;1268;61852;-25
2022/01/04 09:58:25;;;;;;;3.40;2.00;;;;;;;6.77;70.30;97757.20;105430;1268;61035;-22
2022/01/04 10:00:52;;;;;;;7.80;3.20;;;;;;;6.66;70.89;97749.54;105070;1268;75442;-22
2022/01/04 10:03:26;;;;;;;6.80;2.60;;;;;;;6.52;72.04;97749.04;105024;1271;76033;-23
2022/01/04 10:06:20;;;;;;;7.30;2.30;;;;;;;6.53;71.46;97747.70;104913;1268;73348;-22
2022/01/04 10:09:08;;;;;;;7.10;2.20;;;;;;;7.08;69.71;97752.31;105295;1268;61057;-23
2022/01/04 10:11:58;;;;;;;4.70;2.40;;;;;;;7.43;68.68;97753.09;105116;1268;63223;-22
2022/01/04 10:14:26;;;;;;;6.70;2.30;;;;;;;7.32;68.44;97750.20;105161;1268;73385;-22
2022/01/04 10:17:20;;;;;;;4.70;1.80;;;;;;;7.16;69.22;97750.73;104952;1268;76143;-22
2022/01/04 10:19:53;;;;;;;6.80;2.60;;;;;;;7.28;68.98;97746.27;104954;1268;72663;-22
2022/01/04 10:22:28;;;;;;;6.60;2.40;;;;;;;7.41;68.64;97743.20;105217;1268;61120;-22
2022/01/04 10:25:05;;;;;;;8.90;2.80;;;;;;;7.38;68.58;97743.79;104994;1269;61221;-22
2022/01/04 10:27:50;;;;;;;4.10;1.50;;;;;;;7.37;68.31;97742.54;105001;1268;75505;-22
2022/01/04 10:30:34;;;;;;;5.00;2.40;;;;;;;7.42;67.84;97731.75;104969;1268;75703;-21
2022/01/04 10:33:00;;;;;;;;;;;;;;;7.76;67.74;97733.53;104846;1271;73643;-23
2022/01/04 10:35:32;;;;;;;4.00;2.50;;;;;;;7.97;67.00;97731.84;105051;1268;61134;-23
2022/01/04 10:38:11;;;;;;;4.40;2.20;;;;;;;8.11;66.30;97734.33;104894;1271;61211;-23
2022/01/04 10:40:39;;;;;;;3.90;2.00;;;;;;;8.21;65.65;97732.20;104970;1268;75423;-23
2022/01/04 10:43:20;;;;;;;4.80;2.10;;;;;;;8.05;65.59;97724.98;104801;1268;75806;-24
2022/01/04 10:45:48;;;;;;;5.10;2.00;;;;;;;7.73;65.96;97721.34;104827;1271;74471;-27
2022/01/04 10:48:26;;;;;;;6.10;2.20;;;;;;;7.58;66.95;97717.13;104981;1268;60974;-24
2022/01/04 10:50:55;;;;;;;4.40;2.10;;;;;;;7.54;67.30;97718.91;104863;1268;61019;-23
2022/01/04 10:53:28;;;;;;;3.40;2.10;;;;;;;7.50;67.52;97718.95;104856;1271;75847;-24
2022/01/04 10:56:03;;;;;;;7.60;2.10;;;;;;;7.34;67.89;97727.74;104823;1271;76062;-23
2022/01/04 10:58:32;;;;;;;4.10;1.60;;;;;;;7.21;68.58;97723.92;104927;1271;74338;-23
2022/01/04 11:01:10;;;;;;;7.00;2.20;;;;;;;7.14;69.08;97722.29;105105;1268;61131;-25
2022/01/04 11:03:41;;;;;;;6.10;2.40;;;;;;;7.07;69.12;97722.00;104858;1271;61404;-27
2022/01/04 11:06:25;;;;;;;4.30;1.90;;;;;;;7.04;69.37;97709.70;104802;1274;75416;-25
2022/01/04 11:08:52;;;;;;;3.70;1.90;;;;;;;7.76;68.39;97701.77;105113;1271;75765;-25
2022/01/04 11:11:20;;;;;;;5.90;2.40;;;;;;;8.27;66.42;97698.66;104933;1271;72936;-24
2022/01/04 11:13:53;;;;;;;5.50;2.00;;;;;;;8.33;65.33;97691.02;104953;1271;61141;-24
2022/01/04 11:16:41;;;;;;;5.20;1.80;;;;;;;8.11;65.94;97688.37;105066;1271;61768;-22
2022/01/04 11:19:08;;;;;;;3.80;1.90;;;;;;;7.93;66.64;97687.23;105039;1274;75582;-25
2022/01/04 11:21:41;;;;;;;5.90;2.20;;;;;;;7.79;66.98;97684.70;105129;1271;75986;-24
2022/01/04 11:24:12;;;;;;;3.00;1.70;;;;;;;7.52;67.24;97673.89;104838;1271;74508;-24
2022/01/04 11:26:41;;;;;;;3.50;1.80;;;;;;;7.39;67.69;97661.36;104764;1271;61150;-23
2022/01/04 11:29:09;;;;;;;5.50;2.10;;;;;;;7.39;68.57;97661.04;104668;1271;61144;-22
2022/01/04 11:31:47;;;;;;;4.30;2.10;;;;;;;7.29;67.94;97669.55;104959;1268;75401;-23
2022/01/04 11:34:16;;;;;;;3.90;1.70;;;;;;;7.21;68.56;97684.96;105116;1269;75930;-23
2022/01/04 11:36:53;;;;;;;4.40;1.60;;;;;;;7.21;68.62;97684.88;105197;1268;73575;-24
2022/01/04 11:39:29;;;;;;;4.00;1.40;;;;;;;7.30;68.44;97684.48;105190;1268;62799;-24
2022/01/04 11:42:21;;;;;;;4.00;1.90;;;;;;;7.98;66.95;97680.89;105198;1271;61174;-23
2022/01/04 11:44:48;;;;;;;5.50;1.70;;;;;;;8.50;64.67;97680.95;105037;1268;75543;-24
2022/01/04 11:47:26;;;;;;;4.60;1.90;;;;;;;8.52;65.24;97676.82;104965;1268;77708;-24
2022/01/04 11:50:10;;;;;;;6.40;1.70;;;;;;;8.29;64.99;97662.71;104863;1271;74523;-23
2022/01/04 11:52:41;;;;;;;3.80;2.00;;;;;;;8.10;65.94;97665.77;105165;1271;61903;-23
2022/01/04 11:55:26;;;;;;;4.00;2.00;;;;;;;7.98;65.95;97676.58;104984;1271;61265;-22
2022/01/04 11:57:57;;;;;;;4.80;2.10;;;;;;;7.93;66.75;97672.89;105174;1268;74384;-22
2022/01/04 12:00:29;;;;;;;6.00;2.40;;;;;;;7.85;66.81;97679.84;105178;1271;75969;-22